createdAt,value
2018-05-13T00:01:06.624Z,21.30
2018-05-13T00:03:34.119Z,22.47
2018-05-13T00:06:01.613Z,25.30
2018-05-13T00:08:29.157Z,25.93
2018-05-13T00:10:57.395Z,22.63
2018-05-13T00:13:24.895Z,25.87
2018-05-13T00:15:53.141Z,38.00
2018-05-13T00:18:20.639Z,27.83
2018-05-13T00:20:49.230Z,25.17
2018-05-13T00:23:16.705Z,24.97
2018-05-13T00:25:44.225Z,20.83
2018-05-13T00:28:11.703Z,23.27
2018-05-13T00:30:39.189Z,23.47
2018-05-13T00:33:06.674Z,21.47
2018-05-13T00:35:34.324Z,23.73
2018-05-13T00:38:01.812Z,25.20
2018-05-13T00:40:29.278Z,22.17
2018-05-13T00:42:56.785Z,26.33
2018-05-13T00:45:24.896Z,26.10
2018-05-13T00:47:52.379Z,24.57
2018-05-13T00:50:20.642Z,23.37
2018-05-13T00:52:48.124Z,25.73
2018-05-13T00:55:16.379Z,23.83
2018-05-13T00:57:43.876Z,24.53
2018-05-13T01:00:11.369Z,28.33
2018-05-13T01:02:38.847Z,26.00
2018-05-13T01:05:06.328Z,24.70
2018-05-13T01:07:33.993Z,29.53
2018-05-13T01:10:01.477Z,27.93
2018-05-13T01:12:29.028Z,24.47
2018-05-13T01:14:56.469Z,27.40
2018-05-13T01:17:24.714Z,21.87
2018-05-13T01:19:52.197Z,28.30
2018-05-13T01:22:19.798Z,25.90
2018-05-13T01:24:47.274Z,23.47
2018-05-13T01:27:14.781Z,24.77
2018-05-13T01:29:42.252Z,24.77
2018-05-13T01:32:10.486Z,23.30
2018-05-13T01:34:37.984Z,25.23
2018-05-13T01:37:06.279Z,29.27
2018-05-13T01:39:33.936Z,23.40
2018-05-13T01:42:01.420Z,25.73
2018-05-13T01:44:28.896Z,26.13
2018-05-13T01:46:56.410Z,22.67
2018-05-13T01:49:24.661Z,19.97
2018-05-13T01:51:52.128Z,25.77
2018-05-13T01:54:20.372Z,20.50
2018-05-13T01:56:47.888Z,23.47
2018-05-13T01:59:15.500Z,20.80
2018-05-13T02:01:42.977Z,20.43
2018-05-13T02:04:10.506Z,20.00
2018-05-13T02:06:38.207Z,20.57
2018-05-13T02:09:05.678Z,25.60
2018-05-13T02:11:33.947Z,20.77
2018-05-13T02:14:01.409Z,19.70
2018-05-13T02:16:29.663Z,16.67
2018-05-13T02:18:57.125Z,17.27
2018-05-13T02:21:24.588Z,16.37
2018-05-13T02:23:52.061Z,15.87
2018-05-13T02:26:20.307Z,16.63
2018-05-13T02:28:48.667Z,16.90
2018-05-13T02:31:16.210Z,16.87
2018-05-13T02:33:43.673Z,17.27
2018-05-13T02:36:11.182Z,17.57
2018-05-13T02:38:39.040Z,16.10
2018-05-13T02:41:06.519Z,14.50
2018-05-13T02:43:33.979Z,12.73
2018-05-13T02:46:02.466Z,9.20
2018-05-13T02:48:30.689Z,9.20
2018-05-13T02:50:58.552Z,9.30
2018-05-13T02:53:26.837Z,10.40
2018-05-13T02:55:54.346Z,11.03
2018-05-13T02:58:22.561Z,9.30
2018-05-13T03:00:50.037Z,10.27
2018-05-13T03:03:17.511Z,8.77
2018-05-13T03:05:44.976Z,10.60
2018-05-13T03:08:12.445Z,10.70
2018-05-13T03:10:40.249Z,11.47
2018-05-13T03:13:07.753Z,11.77
2018-05-13T03:15:35.247Z,11.43
2018-05-13T03:18:03.505Z,14.77
2018-05-13T03:20:30.969Z,13.50
2018-05-13T03:22:59.224Z,15.00
2018-05-13T03:25:27.569Z,14.40
2018-05-13T03:27:55.054Z,11.90
2018-05-13T03:30:22.552Z,20.30
2018-05-13T03:32:50.929Z,12.07
2018-05-13T03:35:19.273Z,12.53
2018-05-13T03:37:46.776Z,17.07
2018-05-13T03:40:14.257Z,14.23
2018-05-13T03:42:42.366Z,17.40
2018-05-13T03:45:09.850Z,16.67
2018-05-13T03:47:37.316Z,15.50
2018-05-13T03:50:05.575Z,15.00
2018-05-13T03:52:33.052Z,21.90
2018-05-13T03:55:00.670Z,15.97
2018-05-13T03:57:28.486Z,17.77
2018-05-13T03:59:56.878Z,16.87
2018-05-13T04:02:25.122Z,24.97
2018-05-13T04:04:52.605Z,17.00
2018-05-13T04:07:20.959Z,19.10
2018-05-13T04:10:01.824Z,19.73
2018-05-13T04:12:41.265Z,16.03
2018-05-13T04:15:28.934Z,16.30
2018-05-13T04:17:57.167Z,16.87
2018-05-13T04:20:24.677Z,16.77
2018-05-13T04:22:52.985Z,27.67
2018-05-13T04:25:20.501Z,21.50
2018-05-13T04:27:48.731Z,24.70
2018-05-13T04:30:16.238Z,24.40
2018-05-13T04:32:44.050Z,25.93
2018-05-13T04:35:11.563Z,19.20
2018-05-13T04:37:39.028Z,23.20
2018-05-13T04:40:07.280Z,24.50
2018-05-13T04:42:35.528Z,21.90
2018-05-13T04:45:03.050Z,23.63
2018-05-13T04:47:31.316Z,23.13
2018-05-13T04:49:59.585Z,31.20
2018-05-13T04:52:27.860Z,29.03
2018-05-13T04:54:56.320Z,27.23
2018-05-13T04:57:23.812Z,26.10
2018-05-13T04:59:51.291Z,35.23
2018-05-13T05:02:18.801Z,29.07
2018-05-13T05:04:46.442Z,27.60
2018-05-13T05:07:13.913Z,43.37
2018-05-13T05:09:41.380Z,39.73
2018-05-13T05:12:08.871Z,43.30
2018-05-13T05:14:37.110Z,37.73
2018-05-13T05:17:04.628Z,43.10
2018-05-13T05:19:32.125Z,39.33
2018-05-13T05:21:59.614Z,38.10
2018-05-13T05:24:27.841Z,39.17
2018-05-13T05:26:55.339Z,40.27
2018-05-13T05:29:22.807Z,37.80
2018-05-13T05:31:50.280Z,36.20
2018-05-13T05:34:19.300Z,37.40
2018-05-13T05:36:46.889Z,40.57
2018-05-13T05:39:14.359Z,46.93
2018-05-13T05:41:41.843Z,36.57
2018-05-13T05:44:10.132Z,47.77
2018-05-13T05:46:38.384Z,47.57
2018-05-13T05:49:05.862Z,50.70
2018-05-13T05:51:34.107Z,35.13
2018-05-13T05:54:01.621Z,38.73
2018-05-13T05:56:29.522Z,50.43
2018-05-13T05:58:57.033Z,40.77
2018-05-13T06:01:25.257Z,44.57
2018-05-13T06:03:52.768Z,41.80
2018-05-13T06:06:21.029Z,47.00
2018-05-13T06:08:49.298Z,59.27
2018-05-13T06:11:16.820Z,43.00
2018-05-13T06:13:44.294Z,40.57
2018-05-13T06:16:11.771Z,37.70
2018-05-13T06:18:39.488Z,38.07
2018-05-13T06:21:06.956Z,48.83
2018-05-13T06:23:34.450Z,43.00
2018-05-13T06:26:01.923Z,47.07
2018-05-13T06:28:29.414Z,53.33
2018-05-13T06:30:56.893Z,47.80
2018-05-13T06:33:24.381Z,59.70
2018-05-13T06:35:51.862Z,53.63
2018-05-13T06:38:19.329Z,47.10
2018-05-13T06:40:48.203Z,56.80
2018-05-13T06:43:15.691Z,56.77
2018-05-13T06:45:44.013Z,59.53
2018-05-13T06:48:11.537Z,59.67
2018-05-13T06:50:39.020Z,68.43
2018-05-13T06:53:06.534Z,67.90
2018-05-13T06:55:35.088Z,70.07
2018-05-13T06:58:02.588Z,84.70
2018-05-13T07:00:30.903Z,79.73
2018-05-13T07:02:58.474Z,71.27
2018-05-13T07:05:26.280Z,70.77
2018-05-13T07:07:53.811Z,71.30
2018-05-13T07:10:21.371Z,70.47
2018-05-13T07:12:49.926Z,76.03
2018-05-13T07:15:17.485Z,78.10
2018-05-13T07:17:44.986Z,85.70
2018-05-13T07:20:12.444Z,88.50
2018-05-13T07:22:39.932Z,80.60
2018-05-13T07:25:08.351Z,81.10
2018-05-13T07:27:35.935Z,93.93
2018-05-13T07:30:03.511Z,82.23
2018-05-13T07:32:33.482Z,83.30
2018-05-13T07:35:13.597Z,85.03
2018-05-13T07:37:41.245Z,85.70
2018-05-13T07:40:08.739Z,91.10
2018-05-13T07:42:37.167Z,85.83
2018-05-13T07:45:04.796Z,87.37
2018-05-13T07:47:32.313Z,94.83
2018-05-13T07:49:59.852Z,74.27
2018-05-13T07:52:27.365Z,86.60
2018-05-13T07:54:55.605Z,73.73
2018-05-13T07:57:23.798Z,89.03
2018-05-13T07:59:51.890Z,80.80
2018-05-13T08:02:20.126Z,83.87
2018-05-13T08:04:47.639Z,82.27
2018-05-13T08:07:15.113Z,82.97
2018-05-13T08:09:42.595Z,85.77
2018-05-13T08:12:10.077Z,80.80
2018-05-13T08:14:37.548Z,78.60
2018-05-13T08:17:05.782Z,82.53
2018-05-13T08:19:33.374Z,82.67
2018-05-13T08:22:00.873Z,75.27
2018-05-13T08:24:28.370Z,74.97
2018-05-13T08:26:56.114Z,84.63
2018-05-13T08:29:23.855Z,77.90
2018-05-13T08:31:52.176Z,84.90
2018-05-13T08:34:20.443Z,72.27
2018-05-13T08:36:47.929Z,81.73
2018-05-13T08:39:15.425Z,88.43
2018-05-13T08:41:42.970Z,72.60
2018-05-13T08:44:11.241Z,77.50
2018-05-13T08:46:39.491Z,77.70
2018-05-13T08:49:07.000Z,81.67
2018-05-13T08:51:34.490Z,76.70
2018-05-13T08:54:02.074Z,81.83
2018-05-13T08:56:29.492Z,78.80
2018-05-13T08:58:57.038Z,76.80
2018-05-13T09:01:24.533Z,81.47
2018-05-13T09:03:52.266Z,92.70
2018-05-13T09:06:19.727Z,90.60
2018-05-13T09:08:47.227Z,75.10
2018-05-13T09:11:14.732Z,82.97
2018-05-13T09:13:42.217Z,69.70
2018-05-13T09:16:09.920Z,70.67
2018-05-13T09:18:37.437Z,95.43
2018-05-13T09:21:05.091Z,80.50
2018-05-13T09:23:32.580Z,74.33
2018-05-13T09:26:00.166Z,75.20
2018-05-13T09:28:27.658Z,83.57
2018-05-13T09:30:55.145Z,79.87
2018-05-13T09:33:22.645Z,79.93
2018-05-13T09:35:50.480Z,70.40
2018-05-13T09:38:18.033Z,82.70
2018-05-13T09:40:45.498Z,82.80
2018-05-13T09:43:13.000Z,80.00
2018-05-13T09:45:40.520Z,76.07
2018-05-13T09:48:08.004Z,82.20
2018-05-13T09:50:35.489Z,81.27
2018-05-13T09:53:03.751Z,85.43
2018-05-13T09:55:31.214Z,76.67
2018-05-13T09:57:59.488Z,86.93
2018-05-13T10:00:27.001Z,92.67
2018-05-13T10:02:54.742Z,100.70
2018-05-13T10:05:22.731Z,87.60
2018-05-13T10:07:50.200Z,96.20
2018-05-13T10:10:17.860Z,89.17
2018-05-13T10:12:45.432Z,109.37
2018-05-13T10:15:12.849Z,104.03
2018-05-13T10:17:40.357Z,109.33
2018-05-13T10:20:07.840Z,95.53
2018-05-13T10:22:35.355Z,85.07
2018-05-13T10:25:02.869Z,87.50
2018-05-13T10:27:31.138Z,94.63
2018-05-13T10:29:58.695Z,92.93
2018-05-13T10:32:26.240Z,93.00
2018-05-13T10:34:54.332Z,82.20
2018-05-13T10:37:21.809Z,97.10
2018-05-13T10:39:50.110Z,76.17
2018-05-13T10:42:17.698Z,81.03
2018-05-13T10:44:45.208Z,75.47
2018-05-13T10:47:13.480Z,80.80
2018-05-13T10:49:41.746Z,93.70
2018-05-13T10:52:10.045Z,86.13
2018-05-13T10:54:37.521Z,66.27
2018-05-13T10:57:05.012Z,67.03
2018-05-13T10:59:32.883Z,71.97
2018-05-13T11:02:00.391Z,71.63
2018-05-13T11:04:28.644Z,71.93
2018-05-13T11:06:56.871Z,75.60
2018-05-13T11:09:24.350Z,86.10
2018-05-13T11:11:51.875Z,82.03
2018-05-13T11:14:19.367Z,84.63
2018-05-13T11:16:46.862Z,87.20
2018-05-13T11:19:14.434Z,112.33
2018-05-13T11:21:42.749Z,86.30
2018-05-13T11:24:10.224Z,77.30
2018-05-13T11:26:37.710Z,76.53
2018-05-13T11:29:05.276Z,78.13
2018-05-13T11:31:32.756Z,87.00
2018-05-13T11:34:00.341Z,93.80
2018-05-13T11:36:27.833Z,99.07
2018-05-13T11:38:55.437Z,84.93
2018-05-13T11:41:23.055Z,93.00
2018-05-13T11:43:50.561Z,87.53
2018-05-13T11:46:18.049Z,81.30
2018-05-13T11:48:45.645Z,79.80
2018-05-13T11:51:13.265Z,68.83
2018-05-13T11:53:40.749Z,73.13
2018-05-13T11:56:08.256Z,75.13
2018-05-13T11:58:36.603Z,59.10
2018-05-13T12:01:04.121Z,65.53
2018-05-13T12:03:31.611Z,64.03
2018-05-13T12:05:59.833Z,66.43
2018-05-13T12:08:28.065Z,64.90
2018-05-13T12:10:55.529Z,62.03
2018-05-13T12:13:23.137Z,82.83
2018-05-13T12:15:50.623Z,67.50
2018-05-13T12:18:18.119Z,76.20
2018-05-13T12:20:46.362Z,80.70
2018-05-13T12:23:13.892Z,71.00
2018-05-13T12:25:41.569Z,69.43
2018-05-13T12:28:09.077Z,77.67
2018-05-13T12:30:36.602Z,89.10
2018-05-13T12:33:04.348Z,71.00
2018-05-13T12:35:32.648Z,80.40
2018-05-13T12:38:00.208Z,65.90
2018-05-13T12:40:28.429Z,80.10
2018-05-13T12:42:56.665Z,79.03
2018-05-13T12:45:24.715Z,73.13
2018-05-13T12:47:52.204Z,64.27
2018-05-13T12:50:19.720Z,67.63
2018-05-13T12:52:47.205Z,66.73
2018-05-13T12:55:14.794Z,75.63
2018-05-13T12:57:42.281Z,72.60
2018-05-13T13:00:10.550Z,77.77
2018-05-13T13:02:38.798Z,66.40
2018-05-13T13:05:06.469Z,64.20
2018-05-13T13:07:33.995Z,71.83
2018-05-13T13:10:01.443Z,75.73
2018-05-13T13:12:29.046Z,63.83
2018-05-13T13:14:56.540Z,67.53
2018-05-13T13:17:24.806Z,66.33
2018-05-13T13:19:53.059Z,56.33
2018-05-13T13:22:20.559Z,65.07
2018-05-13T13:24:48.808Z,64.37
2018-05-13T13:27:16.324Z,72.20
2018-05-13T13:29:43.807Z,78.90
2018-05-13T13:32:11.262Z,66.10
2018-05-13T13:34:38.783Z,68.00
2018-05-13T13:37:06.554Z,57.23
2018-05-13T13:39:34.047Z,58.13
2018-05-13T13:42:02.345Z,64.30
2018-05-13T13:44:29.920Z,56.60
2018-05-13T13:46:58.168Z,55.47
2018-05-13T13:49:25.649Z,53.93
2018-05-13T13:51:53.170Z,50.23
2018-05-13T13:54:20.669Z,55.27
2018-05-13T13:56:48.943Z,48.97
2018-05-13T13:59:16.993Z,45.53
2018-05-13T14:01:44.457Z,51.20
2018-05-13T14:04:13.485Z,52.50
2018-05-13T14:06:41.753Z,53.93
2018-05-13T14:09:09.255Z,47.53
2018-05-13T14:11:36.742Z,51.87
2018-05-13T14:14:04.327Z,51.23
2018-05-13T14:16:31.836Z,56.97
2018-05-13T14:18:59.293Z,58.70
2018-05-13T14:21:27.070Z,54.33
2018-05-13T14:23:54.591Z,54.40
2018-05-13T14:26:22.092Z,54.87
2018-05-13T14:28:49.550Z,59.80
2018-05-13T14:31:17.102Z,54.40
2018-05-13T14:33:44.561Z,54.10
2018-05-13T14:36:12.140Z,52.13
2018-05-13T14:38:39.660Z,54.90
2018-05-13T14:41:07.157Z,58.90
2018-05-13T14:43:34.706Z,57.47
2018-05-13T14:46:02.412Z,61.10
2018-05-13T14:48:29.877Z,57.07
2018-05-13T14:50:57.553Z,55.33
2018-05-13T14:53:25.828Z,54.03
2018-05-13T14:55:54.091Z,63.37
2018-05-13T14:58:22.369Z,59.70
2018-05-13T15:00:50.653Z,52.80
2018-05-13T15:03:18.909Z,51.67
2018-05-13T15:05:46.397Z,59.73
2018-05-13T15:08:13.934Z,53.07
2018-05-13T15:10:41.398Z,50.80
2018-05-13T15:13:09.034Z,61.30
2018-05-13T15:15:36.529Z,49.40
2018-05-13T15:18:04.793Z,55.97
2018-05-13T15:20:33.061Z,54.10
2018-05-13T15:23:00.637Z,55.70
2018-05-13T15:25:28.910Z,59.73
2018-05-13T15:27:57.299Z,57.90
2018-05-13T15:30:24.787Z,61.67
2018-05-13T15:32:52.279Z,71.53
2018-05-13T15:35:19.761Z,67.87
2018-05-13T15:37:47.233Z,72.30
2018-05-13T15:40:15.497Z,65.93
2018-05-13T15:42:43.050Z,71.77
2018-05-13T15:45:11.246Z,68.67
2018-05-13T15:47:39.497Z,71.90
2018-05-13T15:50:07.053Z,78.33
2018-05-13T15:52:34.512Z,73.33
2018-05-13T15:55:02.142Z,73.60
2018-05-13T15:57:30.265Z,71.30
2018-05-13T15:59:58.551Z,74.53
2018-05-13T16:02:26.844Z,68.50
2018-05-13T16:04:55.097Z,71.47
2018-05-13T16:07:22.586Z,77.37
2018-05-13T16:09:50.065Z,67.17
2018-05-13T16:12:17.806Z,73.30
2018-05-13T16:14:45.224Z,84.33
2018-05-13T16:17:12.840Z,70.20
2018-05-13T16:19:40.362Z,76.07
2018-05-13T16:22:07.865Z,84.53
2018-05-13T16:24:35.349Z,82.13
2018-05-13T16:27:02.835Z,75.30
2018-05-13T16:29:30.332Z,83.37
2018-05-13T16:31:57.908Z,74.63
2018-05-13T16:34:25.459Z,78.77
2018-05-13T16:36:52.996Z,81.53
2018-05-13T16:39:21.226Z,82.70
2018-05-13T16:41:48.741Z,78.50
2018-05-13T16:44:16.225Z,86.23
2018-05-13T16:46:43.722Z,73.50
2018-05-13T16:49:11.986Z,71.40
2018-05-13T16:51:39.500Z,86.10
2018-05-13T16:54:06.984Z,76.43
2018-05-13T16:56:34.513Z,77.83
2018-05-13T16:59:02.797Z,75.23
2018-05-13T17:01:30.271Z,79.17
2018-05-13T17:03:57.770Z,80.07
2018-05-13T17:06:25.920Z,74.53
2018-05-13T17:08:53.432Z,76.57
2018-05-13T17:11:21.740Z,75.33
2018-05-13T17:13:49.587Z,77.63
2018-05-13T17:16:17.874Z,78.20
2018-05-13T17:18:45.389Z,70.00
2018-05-13T17:21:12.852Z,86.07
2018-05-13T17:23:40.373Z,76.70
2018-05-13T17:26:08.537Z,76.80
2018-05-13T17:28:36.053Z,72.37
2018-05-13T17:31:03.578Z,79.97
2018-05-13T17:33:31.090Z,68.90
2018-05-13T17:35:59.854Z,76.90
2018-05-13T17:38:27.921Z,82.57
2018-05-13T17:40:55.431Z,78.90
2018-05-13T17:43:22.901Z,73.03
2018-05-13T17:45:50.405Z,79.10
2018-05-13T17:48:18.000Z,70.97
2018-05-13T17:50:46.246Z,68.37
2018-05-13T17:53:13.760Z,79.77
2018-05-13T17:55:41.266Z,68.73
2018-05-13T17:58:08.874Z,80.90
2018-05-13T18:00:36.402Z,86.07
2018-05-13T18:03:04.765Z,70.07
2018-05-13T18:05:32.220Z,83.03
2018-05-13T18:07:59.756Z,82.83
2018-05-13T18:10:27.271Z,76.90
2018-05-13T18:12:55.496Z,76.30
2018-05-13T18:15:23.001Z,87.57
2018-05-13T18:17:51.278Z,66.13
2018-05-13T18:20:19.800Z,66.57
2018-05-13T18:22:47.981Z,68.47
2018-05-13T18:25:15.550Z,73.50
2018-05-13T18:27:43.053Z,67.70
2018-05-13T18:30:11.459Z,65.73
2018-05-13T18:32:38.975Z,62.70
2018-05-13T18:35:06.886Z,68.63
2018-05-13T18:37:34.373Z,62.07
2018-05-13T18:40:01.836Z,67.70
2018-05-13T18:42:29.796Z,72.87
2018-05-13T18:44:57.301Z,62.57
2018-05-13T18:47:25.598Z,77.50
2018-05-13T18:49:53.195Z,66.33
2018-05-13T18:52:20.702Z,66.43
2018-05-13T18:54:49.064Z,73.73
2018-05-13T18:57:17.804Z,65.93
2018-05-13T18:59:45.293Z,63.97
2018-05-13T19:02:12.895Z,77.17
2018-05-13T19:04:41.334Z,67.93
2018-05-13T19:07:08.968Z,63.03
2018-05-13T19:09:37.215Z,69.03
2018-05-13T19:12:05.568Z,71.87
2018-05-13T19:14:33.212Z,71.93
2018-05-13T19:17:00.730Z,65.97
2018-05-13T19:19:28.371Z,82.13
2018-05-13T19:21:56.628Z,71.73
2018-05-13T19:24:24.126Z,70.87
2018-05-13T19:26:52.380Z,70.33
2018-05-13T19:29:19.865Z,72.57
2018-05-13T19:31:48.259Z,64.83
2018-05-13T19:34:15.834Z,70.67
2018-05-13T19:36:43.414Z,68.70
2018-05-13T19:39:10.979Z,76.10
2018-05-13T19:41:38.458Z,60.77
2018-05-13T19:44:05.984Z,72.30
2018-05-13T19:46:33.532Z,54.77
2018-05-13T19:49:01.186Z,57.17
2018-05-13T19:51:28.793Z,59.13
2018-05-13T19:53:56.288Z,55.50
2018-05-13T19:56:24.621Z,51.60
2018-05-13T19:58:52.127Z,58.30
2018-05-13T20:01:22.035Z,62.30
2018-05-13T20:03:51.214Z,56.73
2018-05-13T20:06:18.686Z,51.97
2018-05-13T20:08:46.505Z,47.33
2018-05-13T20:11:14.825Z,47.47
2018-05-13T20:13:43.530Z,52.63
2018-05-13T20:16:11.415Z,54.23
2018-05-13T20:18:39.773Z,46.77
2018-05-13T20:21:07.268Z,49.13
2018-05-13T20:23:34.740Z,49.93
2018-05-13T20:26:02.268Z,54.70
2018-05-13T20:28:30.562Z,62.50
2018-05-13T20:30:58.088Z,60.77
2018-05-13T20:33:26.334Z,53.03
2018-05-13T20:35:53.870Z,59.70
2018-05-13T20:38:21.392Z,55.00
2018-05-13T20:40:49.724Z,48.23
2018-05-13T20:43:17.205Z,49.30
2018-05-13T20:45:45.258Z,55.50
2018-05-13T20:48:13.051Z,48.50
2018-05-13T20:50:42.452Z,50.97
2018-05-13T20:53:09.961Z,58.00
2018-05-13T20:55:37.435Z,60.07
2018-05-13T20:58:04.946Z,50.70
2018-05-13T21:00:32.887Z,63.67
2018-05-13T21:03:00.372Z,48.77
2018-05-13T21:05:29.054Z,58.60
2018-05-13T21:07:56.536Z,60.33
2018-05-13T21:10:24.770Z,58.57
2018-05-13T21:12:52.249Z,55.03
2018-05-13T21:15:19.797Z,59.67
2018-05-13T21:17:47.316Z,52.80
2018-05-13T21:20:14.782Z,64.87
2018-05-13T21:22:42.359Z,62.10
2018-05-13T21:25:09.861Z,68.13
2018-05-13T21:27:38.153Z,64.30
2018-05-13T21:30:06.403Z,58.97
2018-05-13T21:32:33.901Z,78.67
2018-05-13T21:35:01.370Z,68.23
2018-05-13T21:37:28.849Z,69.03
2018-05-13T21:39:56.333Z,69.73
2018-05-13T21:42:23.817Z,72.87
2018-05-13T21:44:52.080Z,65.43
2018-05-13T21:47:19.587Z,70.90
2018-05-13T21:49:47.088Z,72.37
2018-05-13T21:52:16.068Z,62.73
2018-05-13T21:54:43.575Z,69.97
2018-05-13T21:57:11.115Z,68.07
2018-05-13T21:59:39.372Z,72.77
2018-05-13T22:02:08.366Z,73.77
2018-05-13T22:04:35.846Z,66.53
2018-05-13T22:07:04.093Z,72.50
2018-05-13T22:09:31.574Z,59.63
2018-05-13T22:11:59.029Z,74.40
2018-05-13T22:14:27.300Z,67.90
2018-05-13T22:16:54.776Z,70.50
2018-05-13T22:19:23.056Z,63.33
2018-05-13T22:21:51.305Z,69.17
2018-05-13T22:24:18.896Z,72.77
2018-05-13T22:26:47.156Z,73.43
2018-05-13T22:29:15.406Z,80.33
2018-05-13T22:31:43.709Z,76.90
2018-05-13T22:34:11.207Z,81.43
2018-05-13T22:36:38.724Z,72.90
2018-05-13T22:39:06.196Z,81.37
2018-05-13T22:41:34.459Z,76.00
2018-05-13T22:44:01.944Z,74.13
2018-05-13T22:46:30.209Z,76.90
2018-05-13T22:48:58.478Z,76.70
2018-05-13T22:51:26.948Z,88.67
2018-05-13T22:53:54.444Z,80.03
2018-05-13T22:56:22.703Z,98.47
2018-05-13T22:58:50.954Z,86.13
2018-05-13T23:01:18.431Z,85.33
2018-05-13T23:03:45.922Z,83.17
2018-05-13T23:06:13.394Z,83.13
2018-05-13T23:08:40.880Z,92.23
2018-05-13T23:11:08.389Z,97.53
2018-05-13T23:13:36.912Z,97.63
2018-05-13T23:16:04.395Z,96.27
2018-05-13T23:18:31.917Z,110.87
2018-05-13T23:20:59.392Z,104.43
2018-05-13T23:23:26.870Z,90.53
2018-05-13T23:25:54.342Z,112.97
2018-05-13T23:28:21.830Z,114.00
2018-05-13T23:30:50.073Z,104.77
2018-05-13T23:33:17.940Z,100.37
2018-05-13T23:35:45.425Z,105.87
2018-05-13T23:38:13.679Z,113.30
2018-05-13T23:40:41.171Z,107.00
2018-05-13T23:43:08.640Z,118.93
2018-05-13T23:45:36.458Z,111.63
2018-05-13T23:48:03.950Z,123.40
2018-05-13T23:50:31.452Z,124.40
2018-05-13T23:52:59.206Z,123.47
2018-05-13T23:55:26.695Z,135.43
2018-05-13T23:57:54.174Z,133.70
